Time;durP1;ratioP1;P1;durP2;ratioP2;P2;SDS_P1;SDS_P2;PMS_P1;PMS_P2;Temp;Humidity;BMP_temperature;BMP_pressure;BME280_temperature;BME280_humidity;BME280_pressure;Samples;Min_cycle;Max_cycle;Signal;HPM_P1;HPM_P2
2021/06/29 00:00:17;;;;;;;7.90;7.30;;;22.40;99.90;;;;;;5032919;28;20278;-61
2021/06/29 00:02:46;;;;;;;8.00;7.20;;;22.30;99.90;;;;;;5047618;28;20293;-62
2021/06/29 00:05:16;;;;;;;7.07;6.47;;;22.30;99.90;;;;;;5057090;28;20256;-62
2021/06/29 00:07:46;;;;;;;8.20;7.60;;;22.30;99.90;;;;;;5028069;28;20237;-61
2021/06/29 00:10:16;;;;;;;8.77;6.60;;;22.30;99.90;;;;;;5032454;28;20239;-61
2021/06/29 00:12:45;;;;;;;8.43;7.73;;;22.20;99.90;;;;;;5034456;28;20252;-61
2021/06/29 00:15:15;;;;;;;8.23;7.53;;;22.20;99.90;;;;;;5032792;28;20238;-62
2021/06/29 00:17:45;;;;;;;8.10;7.40;;;22.20;99.90;;;;;;5045754;28;20250;-61
2021/06/29 00:20:17;;;;;;;7.87;7.27;;;22.20;99.90;;;;;;5017534;28;20228;-61
2021/06/29 00:22:47;;;;;;;7.67;7.07;;;22.10;99.90;;;;;;5027264;28;20275;-61
2021/06/29 00:25:17;;;;;;;8.53;7.70;;;22.10;99.90;;;;;;5033258;28;20313;-61
2021/06/29 00:27:47;;;;;;;8.17;7.37;;;22.10;99.90;;;;;;5036773;28;20328;-61
2021/06/29 00:30:18;;;;;;;7.50;6.80;;;22.10;99.90;;;;;;5026391;28;20240;-62
2021/06/29 00:32:47;;;;;;;7.73;7.13;;;22.10;99.90;;;;;;5027585;28;20263;-61
2021/06/29 00:35:21;;;;;;;7.73;6.87;;;22.00;99.90;;;;;;5027152;28;20378;-62
2021/06/29 00:37:51;;;;;;;7.77;7.17;;;22.00;99.90;;;;;;5027292;28;20642;-62
2021/06/29 00:40:20;;;;;;;7.90;7.30;;;22.00;99.90;;;;;;5032800;28;20263;-62
2021/06/29 00:42:50;;;;;;;7.97;7.23;;;21.90;99.90;;;;;;5047440;28;20240;-62
2021/06/29 00:45:19;;;;;;;7.87;7.27;;;21.90;99.90;;;;;;5044052;28;20235;-61
2021/06/29 00:47:49;;;;;;;8.33;7.53;;;21.80;99.90;;;;;;5047186;28;20239;-61
2021/06/29 00:50:18;;;;;;;8.47;7.77;;;21.80;99.90;;;;;;5046799;28;20235;-62
2021/06/29 00:52:49;;;;;;;8.37;7.53;;;21.70;99.90;;;;;;5047153;28;20255;-62
2021/06/29 00:55:19;;;;;;;8.13;7.43;;;21.70;99.90;;;;;;5040808;28;20276;-61
2021/06/29 00:57:51;;;;;;;8.60;7.80;;;21.70;99.90;;;;;;5027255;28;20247;-62
2021/06/29 01:00:22;;;;;;;7.07;6.47;;;21.60;99.90;;;;;;5025938;28;20301;-63
2021/06/29 01:02:51;;;;;;;8.40;7.70;;;21.60;99.90;;;;;;5027427;28;20649;-61
2021/06/29 01:05:21;;;;;;;7.73;7.13;;;21.60;99.90;;;;;;5027141;28;20237;-60
2021/06/29 01:07:52;;;;;;;8.37;7.70;;;21.60;99.90;;;;;;5027423;28;20267;-62
2021/06/29 01:10:22;;;;;;;8.67;7.87;;;21.60;99.90;;;;;;5026223;28;20577;-61
2021/06/29 01:12:51;;;;;;;8.07;7.47;;;21.50;99.90;;;;;;5026986;28;20721;-61
2021/06/29 01:15:24;;;;;;;8.40;7.70;;;21.50;99.90;;;;;;5026287;28;20286;-61
2021/06/29 01:17:56;;;;;;;8.03;7.33;;;21.50;99.90;;;;;;5026978;28;20236;-62
2021/06/29 01:20:29;;;;;;;9.30;8.60;;;21.50;99.90;;;;;;5030758;28;20239;-62
2021/06/29 01:23:03;;;;;;;8.50;7.80;;;21.40;99.90;;;;;;5026606;28;20244;-61
2021/06/29 01:25:34;;;;;;;8.77;7.87;;;21.40;99.90;;;;;;5035541;28;20290;-63
2021/06/29 01:28:15;;;;;;;8.00;7.40;;;21.40;99.90;;;;;;5050986;28;20712;-61
2021/06/29 01:31:05;;;;;;;8.43;7.63;;;21.30;99.90;;;;;;5048986;28;20230;-62
2021/06/29 01:33:34;;;;;;;8.53;7.83;;;21.30;99.90;;;;;;5049894;28;20236;-61
2021/06/29 01:36:05;;;;;;;7.87;7.27;;;21.30;99.90;;;;;;5038316;28;20263;-62
2021/06/29 01:38:35;;;;;;;8.70;7.90;;;21.20;99.90;;;;;;5030585;28;20236;-60
2021/06/29 01:41:06;;;;;;;8.10;7.30;;;21.20;99.90;;;;;;5029319;28;20574;-61
2021/06/29 01:43:41;;;;;;;8.67;7.87;;;21.20;99.90;;;;;;5030759;28;20264;-61
2021/06/29 01:46:10;;;;;;;8.77;7.97;;;21.20;99.90;;;;;;5033667;28;20747;-60
2021/06/29 01:48:45;;;;;;;8.87;8.17;;;21.20;99.90;;;;;;5030244;28;20665;-61
2021/06/29 01:51:17;;;;;;;8.87;8.13;;;21.20;99.90;;;;;;5042792;28;20273;-60
2021/06/29 01:53:48;;;;;;;9.07;8.27;;;21.20;99.90;;;;;;5049985;28;20345;-61
2021/06/29 01:56:23;;;;;;;8.70;7.90;;;21.20;99.90;;;;;;5049754;28;20231;-60
2021/06/29 01:58:53;;;;;;;9.23;8.43;;;21.10;99.90;;;;;;5047734;28;20287;-62
2021/06/29 02:01:22;;;;;;;8.83;8.10;;;21.10;99.90;;;;;;5029218;28;20602;-61
2021/06/29 02:03:51;;;;;;;9.80;8.90;;;21.10;99.90;;;;;;5030547;28;20250;-61
2021/06/29 02:06:20;;;;;;;10.50;9.60;;;21.10;99.90;;;;;;5030037;28;20757;-61
2021/06/29 02:08:49;;;;;;;9.30;8.60;;;21.10;99.90;;;;;;5029555;28;20700;-61
2021/06/29 02:11:17;;;;;;;9.70;8.73;;;21.10;99.90;;;;;;5028925;28;20270;-60
2021/06/29 02:13:45;;;;;;;10.03;9.03;;;21.00;99.90;;;;;;5029603;28;20243;-61
2021/06/29 02:16:13;;;;;;;10.20;9.20;;;21.00;99.90;;;;;;5029755;28;20229;-61
2021/06/29 02:18:41;;;;;;;10.60;9.80;;;21.00;99.90;;;;;;5029855;28;20299;-60
2021/06/29 02:21:12;;;;;;;11.07;10.03;;;21.00;99.90;;;;;;5033521;28;20265;-60
2021/06/29 02:23:41;;;;;;;10.93;10.03;;;21.00;99.90;;;;;;5029656;28;20251;-61
2021/06/29 02:26:09;;;;;;;11.47;10.57;;;21.00;99.90;;;;;;5040929;28;20249;-60
2021/06/29 02:28:38;;;;;;;12.13;10.93;;;21.00;99.90;;;;;;5049476;28;20270;-61
2021/06/29 02:31:08;;;;;;;11.73;10.63;;;21.00;99.90;;;;;;5031012;28;20247;-61
2021/06/29 02:33:36;;;;;;;11.77;10.77;;;21.00;99.90;;;;;;5029401;28;20237;-62
2021/06/29 02:36:05;;;;;;;12.10;11.10;;;20.90;99.90;;;;;;5029045;28;20572;-62
2021/06/29 02:38:33;;;;;;;11.97;10.97;;;20.90;99.90;;;;;;5029182;28;20322;-62
2021/06/29 02:41:04;;;;;;;12.23;11.03;;;20.90;99.90;;;;;;5040432;28;20292;-61
2021/06/29 02:43:32;;;;;;;13.10;11.80;;;20.90;99.90;;;;;;5031375;28;20240;-61
2021/06/29 02:46:00;;;;;;;11.87;10.80;;;20.90;99.90;;;;;;5041115;28;20292;-62
2021/06/29 02:48:28;;;;;;;12.00;10.90;;;20.90;99.90;;;;;;5048682;28;20257;-62
2021/06/29 02:50:57;;;;;;;12.53;11.40;;;20.90;99.90;;;;;;5033668;28;20684;-61
2021/06/29 02:53:25;;;;;;;12.50;11.30;;;20.90;99.90;;;;;;5029440;28;20235;-61
2021/06/29 02:55:53;;;;;;;11.57;10.67;;;20.90;99.90;;;;;;5029036;28;20240;-61
2021/06/29 02:58:22;;;;;;;10.87;9.97;;;20.90;99.90;;;;;;5029327;28;20607;-60
2021/06/29 03:00:50;;;;;;;12.00;10.97;;;20.80;99.90;;;;;;5037664;28;20234;-61
2021/06/29 03:03:18;;;;;;;12.43;11.10;;;20.80;99.90;;;;;;5041855;28;20275;-62
2021/06/29 03:05:46;;;;;;;11.47;10.57;;;20.80;99.90;;;;;;5033012;28;20247;-61
2021/06/29 03:08:14;;;;;;;11.80;10.70;;;20.90;99.90;;;;;;5028909;28;20240;-61
2021/06/29 03:10:43;;;;;;;12.40;11.40;;;20.90;99.90;;;;;;5027337;28;20236;-62
2021/06/29 03:13:11;;;;;;;11.90;10.80;;;20.90;99.90;;;;;;5028604;28;20270;-61
2021/06/29 03:15:40;;;;;;;12.33;11.13;;;20.90;99.90;;;;;;5028101;28;20286;-61
2021/06/29 03:18:08;;;;;;;11.90;10.80;;;20.90;99.90;;;;;;5028698;28;20699;-61
2021/06/29 03:20:38;;;;;;;11.13;10.13;;;20.90;99.90;;;;;;5029650;28;20290;-61
2021/06/29 03:23:06;;;;;;;11.30;10.33;;;20.90;99.90;;;;;;5028581;28;20700;-60
2021/06/29 03:25:34;;;;;;;13.87;12.27;;;21.00;99.90;;;;;;5035942;28;20318;-61
2021/06/29 03:28:02;;;;;;;11.53;10.43;;;21.00;99.90;;;;;;5048316;28;20245;-61
2021/06/29 03:30:30;;;;;;;12.50;11.40;;;21.00;99.90;;;;;;5037201;28;20239;-61
2021/06/29 03:33:00;;;;;;;12.17;11.07;;;21.00;99.90;;;;;;5028296;28;20238;-60
2021/06/29 03:35:28;;;;;;;12.10;11.10;;;21.10;99.90;;;;;;5027739;28;20235;-61
2021/06/29 03:37:57;;;;;;;13.33;12.13;;;21.10;99.90;;;;;;5028035;28;20235;-61
2021/06/29 03:40:25;;;;;;;12.73;11.53;;;21.10;99.90;;;;;;5026222;28;20239;-62
2021/06/29 03:42:53;;;;;;;11.87;10.97;;;21.20;99.90;;;;;;5028177;28;20247;-62
2021/06/29 03:45:22;;;;;;;13.37;12.17;;;21.20;99.90;;;;;;5034395;28;20239;-62
2021/06/29 03:47:50;;;;;;;11.87;10.87;;;21.10;99.90;;;;;;5047730;28;20249;-62
2021/06/29 03:50:19;;;;;;;11.57;10.60;;;21.10;99.90;;;;;;5039025;28;20306;-62
2021/06/29 03:52:48;;;;;;;12.07;11.00;;;21.10;99.90;;;;;;5027559;28;20277;-62
2021/06/29 03:55:16;;;;;;;12.43;11.43;;;21.20;99.90;;;;;;5027372;28;20240;-63
2021/06/29 03:57:44;;;;;;;11.43;10.20;;;21.10;99.90;;;;;;5028446;28;20662;-62
2021/06/29 04:00:14;;;;;;;12.83;11.60;;;21.10;99.90;;;;;;5031830;28;20239;-62
2021/06/29 04:02:42;;;;;;;11.63;10.50;;;21.10;99.90;;;;;;5047713;28;20239;-62
2021/06/29 04:05:11;;;;;;;11.33;10.33;;;21.10;99.90;;;;;;5047531;28;20247;-61
2021/06/29 04:07:40;;;;;;;12.00;11.00;;;21.10;99.90;;;;;;5047171;28;20237;-62
2021/06/29 04:10:09;;;;;;;12.50;11.30;;;21.20;99.90;;;;;;5045800;28;20313;-61
2021/06/29 04:12:37;;;;;;;12.30;11.30;;;21.20;99.90;;;;;;5047244;28;20239;-61
2021/06/29 04:15:08;;;;;;;12.33;11.23;;;21.30;99.90;;;;;;5047229;28;20269;-61
2021/06/29 04:17:36;;;;;;;12.67;11.47;;;21.30;99.90;;;;;;5047425;28;20231;-63
2021/06/29 04:20:06;;;;;;;14.30;12.83;;;21.30;99.90;;;;;;5036568;28;20876;-62
2021/06/29 04:22:34;;;;;;;13.57;12.30;;;21.40;99.90;;;;;;5042369;28;20654;-61
2021/06/29 04:25:04;;;;;;;12.23;11.13;;;21.40;99.90;;;;;;5027204;28;20246;-61
2021/06/29 04:27:32;;;;;;;13.80;12.50;;;21.40;99.90;;;;;;5027276;28;20239;-61
2021/06/29 04:30:00;;;;;;;12.63;11.43;;;21.50;99.90;;;;;;5026312;28;20238;-61
2021/06/29 04:32:28;;;;;;;13.23;11.20;;;21.50;99.90;;;;;;5026647;28;20656;-62
2021/06/29 04:34:57;;;;;;;11.97;10.90;;;21.50;99.90;;;;;;5026969;28;20242;-61
2021/06/29 04:37:25;;;;;;;12.10;11.00;;;21.60;99.90;;;;;;5042260;28;20266;-63
2021/06/29 04:39:53;;;;;;;13.40;12.20;;;21.60;99.90;;;;;;5026444;28;20243;-61
2021/06/29 04:42:23;;;;;;;12.67;11.57;;;21.60;99.90;;;;;;5027015;28;20295;-61
2021/06/29 04:44:52;;;;;;;15.60;14.30;;;21.60;99.90;;;;;;5027359;28;20236;-61
2021/06/29 04:47:20;;;;;;;13.00;11.90;;;21.60;99.90;;;;;;5026947;28;20247;-62
2021/06/29 04:49:48;;;;;;;14.73;13.47;;;21.60;99.90;;;;;;5026310;28;20231;-61
2021/06/29 04:52:16;;;;;;;14.87;13.57;;;21.50;99.90;;;;;;5026353;28;20271;-61
2021/06/29 04:54:51;;;;;;;11.52;10.20;;;21.50;99.90;;;;;;1883716;28;10022858;-61
2021/06/29 04:57:19;;;;;;;13.03;11.83;;;21.60;99.90;;;;;;4332630;28;10001344;-61
2021/06/29 04:59:48;;;;;;;13.77;12.57;;;21.60;99.90;;;;;;5025564;28;20739;-62
2021/06/29 05:02:17;;;;;;;12.30;11.20;;;21.70;99.90;;;;;;5029958;28;20703;-63
2021/06/29 05:04:45;;;;;;;11.70;10.70;;;21.70;99.90;;;;;;5030466;28;20250;-62
2021/06/29 05:07:13;;;;;;;11.20;10.20;;;21.80;99.90;;;;;;5030738;28;20254;-63
2021/06/29 05:09:41;;;;;;;11.93;11.00;;;21.90;99.90;;;;;;5029623;28;20324;-62
2021/06/29 05:12:10;;;;;;;12.47;11.30;;;21.90;99.90;;;;;;5028725;28;20251;-62
2021/06/29 05:14:38;;;;;;;11.80;10.70;;;21.90;99.90;;;;;;5030450;28;20236;-62
2021/06/29 05:17:08;;;;;;;12.97;11.87;;;22.00;99.90;;;;;;5030886;28;20240;-62
2021/06/29 05:19:36;;;;;;;11.30;10.33;;;22.00;99.90;;;;;;5030224;28;20228;-63
2021/06/29 05:22:05;;;;;;;12.10;10.90;;;22.10;99.90;;;;;;5029800;28;20473;-63
2021/06/29 05:24:33;;;;;;;11.43;10.43;;;22.10;99.90;;;;;;5029280;28;20244;-62
2021/06/29 05:27:01;;;;;;;12.40;11.30;;;22.10;99.90;;;;;;5029146;28;20782;-62
2021/06/29 05:29:29;;;;;;;12.23;10.77;;;22.10;99.90;;;;;;5025541;28;20232;-62
2021/06/29 05:31:57;;;;;;;12.23;11.13;;;22.20;99.90;;;;;;5043148;28;20268;-62
2021/06/29 05:34:27;;;;;;;10.47;9.60;;;22.30;99.90;;;;;;5035018;28;20566;-63
2021/06/29 05:36:55;;;;;;;11.10;10.13;;;22.30;99.90;;;;;;5024596;28;20665;-62
2021/06/29 05:39:23;;;;;;;11.70;10.50;;;22.40;99.90;;;;;;5025620;28;20310;-63
2021/06/29 05:41:52;;;;;;;12.33;11.17;;;22.30;99.90;;;;;;5025197;28;20338;-63
2021/06/29 05:44:20;;;;;;;10.60;9.80;;;22.30;99.90;;;;;;5026334;28;20380;-63
2021/06/29 05:46:51;;;;;;;9.97;9.17;;;22.40;99.90;;;;;;5026700;28;20259;-62
2021/06/29 05:49:19;;;;;;;11.93;10.20;;;22.50;99.90;;;;;;5027118;28;20274;-63
2021/06/29 05:51:49;;;;;;;10.10;9.10;;;22.60;99.90;;;;;;5044255;28;20235;-62
2021/06/29 05:54:17;;;;;;;10.43;9.53;;;22.80;99.90;;;;;;5035048;28;20325;-63
2021/06/29 05:56:46;;;;;;;9.53;8.63;;;22.90;99.90;;;;;;5044973;28;20259;-61
2021/06/29 05:59:14;;;;;;;11.47;10.33;;;23.00;99.90;;;;;;5047436;28;21018;-62
2021/06/29 06:01:42;;;;;;;10.50;9.43;;;23.10;99.90;;;;;;5046191;28;20300;-63
2021/06/29 06:04:11;;;;;;;9.30;8.50;;;23.30;99.90;;;;;;5046459;28;20448;-62
2021/06/29 06:06:39;;;;;;;10.20;9.20;;;23.50;99.90;;;;;;5046295;28;20301;-62
2021/06/29 06:09:09;;;;;;;10.67;9.57;;;23.90;99.90;;;;;;5046277;28;20856;-64
2021/06/29 06:11:37;;;;;;;8.67;7.77;;;24.20;99.90;;;;;;5027893;28;20400;-64
2021/06/29 06:14:05;;;;;;;8.67;7.47;;;24.50;99.90;;;;;;5026829;28;20255;-63
2021/06/29 06:16:34;;;;;;;8.77;7.97;;;24.60;99.90;;;;;;5026375;28;20267;-63
2021/06/29 06:19:02;;;;;;;7.97;7.33;;;24.80;99.90;;;;;;5026867;28;20770;-62
2021/06/29 06:21:30;;;;;;;11.30;8.80;;;24.90;99.90;;;;;;5029809;28;20236;-63
2021/06/29 06:23:59;;;;;;;9.07;8.27;;;24.90;99.90;;;;;;5026618;28;20253;-63
2021/06/29 06:26:28;;;;;;;9.37;8.03;;;24.80;99.90;;;;;;5026487;28;20236;-63
2021/06/29 06:28:56;;;;;;;9.23;8.43;;;24.80;99.90;;;;;;5026197;28;20249;-63
2021/06/29 06:31:24;;;;;;;7.60;6.87;;;24.70;99.90;;;;;;5040090;28;20248;-63
2021/06/29 06:33:53;;;;;;;8.67;7.80;;;24.80;99.90;;;;;;5046278;28;20240;-62
2021/06/29 06:36:21;;;;;;;7.63;6.93;;;24.80;99.90;;;;;;5045900;28;20391;-63
2021/06/29 06:38:49;;;;;;;8.30;7.47;;;24.80;99.90;;;;;;5045541;28;20650;-63
2021/06/29 06:41:18;;;;;;;8.30;7.50;;;24.80;99.90;;;;;;5044783;28;20234;-62
2021/06/29 06:43:47;;;;;;;10.43;9.40;;;24.90;99.90;;;;;;5045682;28;20237;-64
2021/06/29 06:46:15;;;;;;;10.10;9.10;;;24.80;99.90;;;;;;5045471;28;20312;-63
2021/06/29 06:48:44;;;;;;;9.77;8.97;;;24.90;99.90;;;;;;5045788;28;20287;-63
2021/06/29 06:51:13;;;;;;;10.40;9.50;;;25.00;99.90;;;;;;5031065;28;20761;-63
2021/06/29 06:53:42;;;;;;;10.83;9.83;;;25.00;99.90;;;;;;5025906;28;20596;-63
2021/06/29 06:56:14;;;;;;;10.37;9.37;;;25.10;99.90;;;;;;5038419;28;20285;-64
2021/06/29 06:58:43;;;;;;;10.00;9.10;;;25.20;99.90;;;;;;5045557;28;20249;-62
2021/06/29 07:01:16;;;;;;;11.03;10.07;;;25.30;99.90;;;;;;5044297;28;20257;-63
2021/06/29 07:03:45;;;;;;;9.87;8.93;;;25.40;99.90;;;;;;5046027;28;20584;-63
2021/06/29 07:06:14;;;;;;;9.67;8.77;;;25.30;99.90;;;;;;5045832;28;20247;-63
2021/06/29 07:08:42;;;;;;;10.73;9.53;;;25.30;99.90;;;;;;5045551;28;20338;-63
2021/06/29 07:11:10;;;;;;;10.03;9.23;;;25.20;99.90;;;;;;5030759;28;20253;-63
2021/06/29 07:13:39;;;;;;;8.87;8.17;;;25.00;99.90;;;;;;5025211;28;20292;-64
2021/06/29 07:16:07;;;;;;;9.37;8.50;;;25.10;99.90;;;;;;5025583;28;20245;-64
2021/06/29 07:18:37;;;;;;;9.00;8.10;;;25.20;99.90;;;;;;5025720;28;20252;-62
2021/06/29 07:21:06;;;;;;;8.07;7.30;;;25.00;99.90;;;;;;5039019;28;20754;-63
2021/06/29 07:23:34;;;;;;;9.60;8.70;;;25.10;99.90;;;;;;5024230;28;20277;-62
2021/06/29 07:26:03;;;;;;;8.33;7.60;;;25.00;99.90;;;;;;5024760;28;20238;-63
2021/06/29 07:28:31;;;;;;;9.50;8.70;;;25.00;99.90;;;;;;5025345;28;20260;-62
2021/06/29 07:30:59;;;;;;;9.33;8.50;;;25.00;99.90;;;;;;5024057;28;20242;-63
2021/06/29 07:33:28;;;;;;;9.80;8.80;;;24.90;99.90;;;;;;5025393;28;20238;-64
2021/06/29 07:35:57;;;;;;;9.77;8.87;;;24.80;99.90;;;;;;5024626;28;20345;-63
2021/06/29 07:38:25;;;;;;;9.27;8.37;;;24.70;99.90;;;;;;5025158;28;20706;-63
2021/06/29 07:40:53;;;;;;;10.70;9.70;;;24.80;99.90;;;;;;5034512;28;20227;-64
2021/06/29 07:43:22;;;;;;;9.80;8.90;;;24.80;99.90;;;;;;5045323;28;20263;-63
2021/06/29 07:45:50;;;;;;;9.73;8.93;;;24.80;99.90;;;;;;5044793;28;20604;-63
2021/06/29 07:48:18;;;;;;;8.90;8.10;;;24.70;99.90;;;;;;5044758;28;20244;-63
2021/06/29 07:50:46;;;;;;;10.57;8.60;;;24.70;99.90;;;;;;5043480;28;20439;-62
2021/06/29 07:53:15;;;;;;;9.50;8.70;;;24.70;99.90;;;;;;5045336;28;20239;-64
2021/06/29 07:55:43;;;;;;;10.80;9.80;;;24.60;99.90;;;;;;5033893;28;20237;-63
2021/06/29 07:58:12;;;;;;;10.10;9.10;;;24.60;99.90;;;;;;5024960;28;20243;-62
2021/06/29 08:00:40;;;;;;;8.83;7.93;;;24.60;99.90;;;;;;5032574;28;20466;-63
2021/06/29 08:03:08;;;;;;;10.13;8.20;;;24.70;99.90;;;;;;5045622;28;20320;-63
2021/06/29 08:05:37;;;;;;;9.37;8.10;;;24.80;99.90;;;;;;5038903;28;20242;-63
2021/06/29 08:08:07;;;;;;;8.73;7.93;;;24.80;99.90;;;;;;5027111;28;20247;-64
2021/06/29 08:10:37;;;;;;;8.40;7.70;;;24.80;99.90;;;;;;5023513;28;20347;-63
2021/06/29 08:13:07;;;;;;;8.40;7.60;;;24.80;99.90;;;;;;5024602;28;20245;-63
2021/06/29 08:15:35;;;;;;;8.70;7.90;;;24.90;99.90;;;;;;5032196;28;20295;-63
2021/06/29 08:18:03;;;;;;;8.80;6.73;;;24.90;99.90;;;;;;5044463;28;20236;-62
2021/06/29 08:20:32;;;;;;;10.20;9.20;;;25.00;99.90;;;;;;5043061;28;20273;-64
2021/06/29 08:23:00;;;;;;;8.03;6.83;;;25.10;99.90;;;;;;5036694;28;20234;-62
2021/06/29 08:25:28;;;;;;;7.60;6.90;;;25.20;99.90;;;;;;5024259;28;20281;-63
2021/06/29 08:27:58;;;;;;;7.37;6.73;;;25.20;99.90;;;;;;5024593;28;20280;-63
2021/06/29 08:30:26;;;;;;;7.67;6.97;;;25.30;99.90;;;;;;5023437;28;20236;-63
2021/06/29 08:32:55;;;;;;;7.93;7.23;;;25.20;99.90;;;;;;5024635;28;20324;-63
2021/06/29 08:35:23;;;;;;;8.00;7.20;;;25.10;99.90;;;;;;5023906;28;20249;-63
2021/06/29 08:37:51;;;;;;;9.77;8.97;;;25.10;99.90;;;;;;5024334;28;20248;-64
2021/06/29 08:40:19;;;;;;;9.17;8.37;;;25.00;99.90;;;;;;5023536;28;20238;-64
2021/06/29 08:42:48;;;;;;;9.13;8.23;;;24.90;99.90;;;;;;5023980;28;20237;-63
2021/06/29 08:45:17;;;;;;;9.57;8.63;;;24.90;99.90;;;;;;5024308;28;20567;-64
2021/06/29 08:47:45;;;;;;;8.37;7.20;;;24.80;99.90;;;;;;5024253;28;20334;-64
2021/06/29 08:50:15;;;;;;;8.73;7.80;;;24.70;99.90;;;;;;5023433;28;20889;-64
2021/06/29 08:52:43;;;;;;;8.70;7.83;;;24.70;99.90;;;;;;5023773;28;20256;-65
2021/06/29 08:55:14;;;;;;;8.23;7.53;;;24.60;99.90;;;;;;5029224;28;20552;-64
2021/06/29 08:57:42;;;;;;;8.53;7.67;;;24.40;99.90;;;;;;5044235;28;20235;-63
2021/06/29 09:00:12;;;;;;;7.43;6.73;;;24.40;99.90;;;;;;5043621;28;20233;-63
2021/06/29 09:02:42;;;;;;;9.67;8.73;;;24.20;99.90;;;;;;5043617;28;20274;-64
2021/06/29 09:05:22;;;;;;;9.40;8.43;;;24.10;99.90;;;;;;5044107;28;20275;-64
2021/06/29 09:08:02;;;;;;;9.93;9.03;;;24.10;99.90;;;;;;5044334;28;20276;-63
2021/06/29 09:10:31;;;;;;;11.27;10.20;;;24.20;99.90;;;;;;5042794;28;20292;-63
2021/06/29 09:12:59;;;;;;;11.20;10.20;;;24.30;99.90;;;;;;5044353;28;20233;-64
2021/06/29 09:15:34;;;;;;;12.20;11.20;;;24.40;99.90;;;;;;5036700;28;20229;-62
2021/06/29 09:18:16;;;;;;;11.07;9.97;;;24.50;99.90;;;;;;5023622;28;20267;-64
2021/06/29 09:20:48;;;;;;;12.07;10.87;;;24.50;99.90;;;;;;5032157;28;20845;-64
2021/06/29 09:23:18;;;;;;;11.57;10.43;;;24.50;99.90;;;;;;5033952;28;20354;-65
2021/06/29 09:25:49;;;;;;;10.70;9.70;;;24.70;99.90;;;;;;5023995;28;20239;-63
2021/06/29 09:28:20;;;;;;;9.53;8.63;;;24.70;99.90;;;;;;5024484;28;20309;-63
2021/06/29 09:30:50;;;;;;;12.07;10.87;;;24.70;99.90;;;;;;5022829;28;20772;-63
2021/06/29 09:33:22;;;;;;;11.00;9.10;;;24.60;99.90;;;;;;5024168;28;20265;-62
2021/06/29 09:35:52;;;;;;;10.97;9.77;;;24.60;99.90;;;;;;5038992;28;20330;-64
2021/06/29 09:38:23;;;;;;;13.50;9.97;;;24.50;99.90;;;;;;5024020;28;20233;-63
2021/06/29 09:40:57;;;;;;;9.47;8.40;;;24.40;99.90;;;;;;5033209;28;20638;-63
2021/06/29 09:43:27;;;;;;;9.17;8.33;;;24.40;99.90;;;;;;5043499;28;20231;-64
2021/06/29 09:45:58;;;;;;;11.80;7.90;;;24.40;99.90;;;;;;5043263;28;20237;-62
2021/06/29 09:48:35;;;;;;;9.73;8.53;;;24.40;99.90;;;;;;5046506;28;20611;-62
2021/06/29 09:51:07;;;;;;;11.23;8.93;;;24.30;99.90;;;;;;5029808;28;20264;-63
2021/06/29 09:53:41;;;;;;;10.27;7.80;;;24.20;99.90;;;;;;5024815;28;20767;-63
2021/06/29 09:56:15;;;;;;;8.43;7.60;;;24.10;99.90;;;;;;5027111;28;20243;-64
2021/06/29 09:58:46;;;;;;;9.33;7.37;;;24.10;99.90;;;;;;5027254;28;20317;-63
2021/06/29 10:01:18;;;;;;;9.67;8.30;;;24.00;99.90;;;;;;5039629;28;20243;-63
2021/06/29 10:03:51;;;;;;;11.10;8.87;;;23.90;99.90;;;;;;5046686;28;20241;-63
2021/06/29 10:06:20;;;;;;;9.40;8.57;;;23.70;99.90;;;;;;5046891;28;20796;-63
2021/06/29 10:08:49;;;;;;;9.03;8.17;;;23.50;99.90;;;;;;5046859;28;20332;-63
2021/06/29 10:11:26;;;;;;;12.10;10.87;;;23.40;99.90;;;;;;5032062;28;20710;-63
2021/06/29 10:13:57;;;;;;;12.83;9.23;;;23.40;99.90;;;;;;5026861;28;20639;-62
2021/06/29 10:16:27;;;;;;;10.80;9.50;;;23.50;99.90;;;;;;5025659;28;20733;-63
2021/06/29 10:19:16;;;;;;;11.93;10.83;;;23.50;99.90;;;;;;5041859;28;20282;-63
2021/06/29 10:21:46;;;;;;;11.83;10.67;;;23.50;99.90;;;;;;5041119;28;20637;-63
2021/06/29 10:24:16;;;;;;;12.60;11.27;;;23.40;99.90;;;;;;5028398;28;20239;-63
2021/06/29 10:26:46;;;;;;;11.00;10.00;;;23.30;99.90;;;;;;5043826;28;20231;-64
2021/06/29 10:29:16;;;;;;;12.03;9.83;;;23.30;99.90;;;;;;5046824;28;20622;-62
2021/06/29 10:31:46;;;;;;;10.27;9.17;;;23.40;99.90;;;;;;5027996;28;20240;-62
2021/06/29 10:34:17;;;;;;;10.97;9.87;;;23.40;99.90;;;;;;5025751;28;20298;-63
2021/06/29 10:36:47;;;;;;;12.30;9.10;;;23.50;99.90;;;;;;5023662;28;20268;-62
2021/06/29 10:39:17;;;;;;;11.40;9.83;;;23.50;99.90;;;;;;5024134;28;20239;-62
2021/06/29 10:41:49;;;;;;;10.50;8.50;;;23.60;99.90;;;;;;5025617;28;20264;-64
2021/06/29 10:44:18;;;;;;;10.80;9.67;;;23.60;99.90;;;;;;5026142;28;20329;-62
2021/06/29 10:46:48;;;;;;;13.20;12.00;;;23.60;99.90;;;;;;5026119;28;20254;-64
2021/06/29 10:49:35;;;;;;;9.87;8.97;;;23.60;99.90;;;;;;5026264;28;20431;-62
2021/06/29 10:52:06;;;;;;;8.70;8.07;;;23.60;99.90;;;;;;5024910;28;20322;-62
2021/06/29 10:54:53;;;;;;;10.10;9.10;;;23.50;99.90;;;;;;5025479;28;20251;-64
2021/06/29 10:57:25;;;;;;;11.33;9.93;;;23.60;99.90;;;;;;5023345;28;20314;-62
2021/06/29 10:59:58;;;;;;;9.00;8.17;;;23.80;99.90;;;;;;5027809;28;20674;-63
2021/06/29 11:02:31;;;;;;;9.50;8.67;;;23.80;99.90;;;;;;5045461;28;20236;-62
2021/06/29 11:05:05;;;;;;;10.00;9.20;;;23.90;99.90;;;;;;5046084;28;20242;-63
2021/06/29 11:07:42;;;;;;;6.97;6.27;;;24.00;99.90;;;;;;5045729;28;20309;-62
2021/06/29 11:10:13;;;;;;;5.97;5.37;;;24.00;99.90;;;;;;5040569;28;20731;-62
2021/06/29 11:12:49;;;;;;;5.40;4.90;;;24.00;99.90;;;;;;5025287;28;20298;-63
2021/06/29 11:15:17;;;;;;;6.37;4.57;;;23.90;99.90;;;;;;5031263;28;20629;-62
2021/06/29 11:18:02;;;;;;;4.60;4.20;;;23.90;99.90;;;;;;5045526;28;20702;-62
2021/06/29 11:20:42;;;;;;;5.17;4.07;;;23.80;99.90;;;;;;5037478;28;20353;-62
2021/06/29 11:23:16;;;;;;;4.33;3.90;;;23.70;99.90;;;;;;5022472;28;20770;-63
2021/06/29 11:25:50;;;;;;;3.83;3.53;;;23.70;99.90;;;;;;5024955;28;20275;-63
2021/06/29 11:28:40;;;;;;;4.67;4.03;;;23.70;99.90;;;;;;5025036;28;20661;-62
2021/06/29 11:31:13;;;;;;;4.17;3.80;;;23.70;99.90;;;;;;5024387;28;20616;-63
2021/06/29 11:33:50;;;;;;;3.67;3.37;;;23.60;99.90;;;;;;5025412;28;20654;-64
2021/06/29 11:36:53;;;;;;;3.03;2.83;;;23.70;99.90;;;;;;5038583;28;20248;-63
2021/06/29 11:39:34;;;;;;;4.27;3.30;;;23.80;99.90;;;;;;5021670;28;20244;-63
2021/06/29 11:42:08;;;;;;;3.17;2.80;;;23.80;99.90;;;;;;5022351;28;20645;-63
2021/06/29 11:44:42;;;;;;;2.73;2.53;;;23.60;99.90;;;;;;5024003;28;20264;-63
2021/06/29 11:47:13;;;;;;;2.90;2.70;;;23.50;99.90;;;;;;5024237;28;20243;-62
2021/06/29 11:49:54;;;;;;;3.37;2.60;;;23.50;99.90;;;;;;5023513;28;20247;-63
2021/06/29 11:52:31;;;;;;;2.77;2.57;;;23.40;99.90;;;;;;5021921;28;20287;-62
2021/06/29 11:55:12;;;;;;;2.90;2.70;;;23.30;99.90;;;;;;5022700;28;20711;-62
2021/06/29 11:57:42;;;;;;;3.20;2.60;;;23.20;99.90;;;;;;5022788;28;20244;-64
2021/06/29 12:00:22;;;;;;;3.07;2.87;;;23.30;99.90;;;;;;5023459;28;20719;-63
2021/06/29 12:02:52;;;;;;;3.00;2.80;;;23.30;99.90;;;;;;5023208;28;21197;-63
2021/06/29 12:05:23;;;;;;;2.83;2.63;;;23.20;99.90;;;;;;5022868;28;20774;-64
2021/06/29 12:07:54;;;;;;;2.70;2.50;;;23.20;99.90;;;;;;5026578;28;20268;-62
2021/06/29 12:10:25;;;;;;;3.77;2.80;;;23.10;99.90;;;;;;5022090;28;20263;-62
2021/06/29 12:12:54;;;;;;;3.03;2.73;;;23.10;99.90;;;;;;5023173;28;20244;-64
2021/06/29 12:15:24;;;;;;;3.80;3.10;;;23.20;99.90;;;;;;5021430;28;20236;-62
2021/06/29 12:17:58;;;;;;;3.30;3.00;;;23.30;99.90;;;;;;5023075;28;20705;-63
2021/06/29 12:20:29;;;;;;;5.13;3.23;;;23.50;99.90;;;;;;5022677;28;20248;-64
2021/06/29 12:23:00;;;;;;;3.67;3.27;;;23.50;99.90;;;;;;5023144;28;20247;-63
2021/06/29 12:25:31;;;;;;;3.60;3.30;;;23.70;99.90;;;;;;5023262;28;20223;-63
2021/06/29 12:28:01;;;;;;;3.47;3.00;;;23.70;99.90;;;;;;5022633;28;20232;-62
2021/06/29 12:30:36;;;;;;;4.63;3.60;;;23.80;99.90;;;;;;5024579;28;20326;-63
2021/06/29 12:33:25;;;;;;;4.00;3.70;;;23.80;99.90;;;;;;5020847;28;20610;-63
2021/06/29 12:35:55;;;;;;;4.23;3.83;;;23.80;99.90;;;;;;5022439;28;20450;-64
2021/06/29 12:38:26;;;;;;;4.13;3.80;;;24.00;99.90;;;;;;5026097;28;20242;-63
2021/06/29 12:40:57;;;;;;;4.87;4.50;;;24.10;99.90;;;;;;5024024;28;20556;-63
2021/06/29 12:43:31;;;;;;;4.07;3.77;;;24.10;99.90;;;;;;5024161;28;20248;-63
2021/06/29 12:46:17;;;;;;;5.50;4.50;;;24.30;99.90;;;;;;5025551;28;20336;-63
2021/06/29 12:48:57;;;;;;;4.57;4.17;;;24.40;99.90;;;;;;5025143;28;20244;-63
2021/06/29 12:51:25;;;;;;;4.40;4.07;;;24.40;99.90;;;;;;5025583;28;20249;-63
2021/06/29 12:53:56;;;;;;;4.30;4.00;;;24.40;99.90;;;;;;5024885;28;20245;-64